createdAt,value
2022-08-02T00:01:25.005Z,101164.88
2022-08-02T00:03:51.724Z,101155.94
2022-08-02T00:06:19.495Z,101156.53
2022-08-02T00:08:46.635Z,101157.63
2022-08-02T00:11:13.673Z,101152.94
2022-08-02T00:13:40.457Z,101158.16
2022-08-02T00:16:07.355Z,101155.63
2022-08-02T00:18:34.256Z,101163.31
2022-08-02T00:21:00.995Z,101161.91
2022-08-02T00:23:27.991Z,101150.41
2022-08-02T00:25:56.038Z,101159.78
2022-08-02T00:28:27.046Z,101154.13
2022-08-02T00:30:56.480Z,101156.25
2022-08-02T00:34:27.678Z,101151.88
2022-08-02T00:36:15.100Z,101148.19
2022-08-02T00:38:42.335Z,101149.47
2022-08-02T00:41:17.146Z,101148.47
2022-08-02T00:43:47.859Z,101141.50
2022-08-02T00:46:17.607Z,101144.50
2022-08-02T00:48:45.089Z,101145.06
2022-08-02T00:51:13.199Z,101146.47
2022-08-02T00:53:40.661Z,101152.31
2022-08-02T00:56:07.962Z,101151.00
2022-08-02T00:58:34.808Z,101157.84
2022-08-02T01:01:02.258Z,101152.28
2022-08-02T01:03:29.085Z,101164.63
2022-08-02T01:06:10.954Z,101152.84
2022-08-02T01:08:40.025Z,101158.94
2022-08-02T01:11:07.917Z,101154.97
2022-08-02T01:13:34.787Z,101168.34
2022-08-02T01:16:16.705Z,101156.53
2022-08-02T01:18:59.357Z,101160.13
2022-08-02T01:22:24.586Z,101163.25
2022-08-02T01:25:55.809Z,101163.50
2022-08-02T01:28:57.806Z,101170.63
2022-08-02T01:31:35.662Z,101170.88
2022-08-02T01:34:32.714Z,101168.47
2022-08-02T01:37:16.013Z,101166.19
2022-08-02T01:39:48.799Z,101177.41
2022-08-02T01:42:20.654Z,101165.66
2022-08-02T01:44:53.370Z,101180.09
2022-08-02T01:47:38.280Z,101175.84
2022-08-02T01:50:10.617Z,101178.41
2022-08-02T01:52:53.237Z,101181.97
2022-08-02T01:55:58.323Z,101183.09
2022-08-02T01:58:34.791Z,101182.38
2022-08-02T02:01:06.004Z,101183.22
2022-08-02T02:03:41.567Z,101183.09
2022-08-02T02:06:12.075Z,101180.41
2022-08-02T02:08:44.245Z,101171.72
2022-08-02T02:12:13.877Z,101174.72
2022-08-02T02:14:02.812Z,101173.28
2022-08-02T02:16:32.152Z,101179.69
2022-08-02T02:19:05.036Z,101174.84
2022-08-02T02:21:32.116Z,101167.88
2022-08-02T02:24:02.650Z,101169.16
2022-08-02T02:26:34.730Z,101165.00
2022-08-02T02:29:09.181Z,101162.88
2022-08-02T02:31:46.567Z,101165.00
2022-08-02T02:34:45.476Z,101182.44
2022-08-02T02:37:22.843Z,101163.69
2022-08-02T02:39:55.038Z,101166.25
2022-08-02T02:42:31.540Z,101159.25
2022-08-02T02:45:00.981Z,101160.69
2022-08-02T02:47:41.093Z,101165.47
2022-08-02T02:50:11.603Z,101155.94
2022-08-02T02:52:40.930Z,101150.72
2022-08-02T02:55:10.767Z,101151.56
2022-08-02T02:57:45.486Z,101149.28
2022-08-02T03:00:15.158Z,101139.88
2022-08-02T03:02:45.870Z,101149.81
2022-08-02T03:05:15.866Z,101150.09
2022-08-02T03:07:42.778Z,101153.91
2022-08-02T03:10:10.823Z,101147.94
2022-08-02T03:12:38.526Z,101149.19
2022-08-02T03:15:09.296Z,101140.66
2022-08-02T03:17:46.263Z,101138.38
2022-08-02T03:20:20.783Z,101142.63
2022-08-02T03:22:48.394Z,101144.94
2022-08-02T03:25:18.700Z,101141.72
2022-08-02T03:27:47.080Z,101142.75
2022-08-02T03:30:15.578Z,101137.66
2022-08-02T03:32:47.426Z,101141.63
2022-08-02T03:35:23.283Z,101131.56
2022-08-02T03:37:55.878Z,101128.75
2022-08-02T03:40:25.132Z,101131.03
2022-08-02T03:42:53.652Z,101131.16
2022-08-02T03:45:21.502Z,101136.00
2022-08-02T03:47:49.702Z,101141.78
2022-08-02T03:50:18.336Z,101134.81
2022-08-02T03:52:46.579Z,101120.38
2022-08-02T03:55:13.950Z,101125.75
2022-08-02T03:57:43.497Z,101121.22
2022-08-02T04:00:19.490Z,101115.81
2022-08-02T04:02:47.065Z,101122.06
2022-08-02T04:05:15.555Z,101117.53
2022-08-02T04:08:33.112Z,101120.09
2022-08-02T04:10:30.788Z,101120.66
2022-08-02T04:12:58.552Z,101118.53
2022-08-02T04:15:25.535Z,101125.66
2022-08-02T04:18:13.050Z,101121.81
2022-08-02T04:20:48.875Z,101123.69
2022-08-02T04:26:48.951Z,101125.13
2022-08-02T04:45:59.425Z,101135.25
2022-08-02T04:48:35.917Z,101142.22
2022-08-02T04:51:05.763Z,101135.66
2022-08-02T04:53:55.945Z,101145.75
2022-08-02T04:56:34.134Z,101145.31
2022-08-02T04:59:26.985Z,101149.19
2022-08-02T05:01:54.670Z,101146.94
2022-08-02T05:04:21.507Z,101141.66
2022-08-02T05:06:48.406Z,101148.91
2022-08-02T05:09:16.509Z,101150.88
2022-08-02T05:11:44.357Z,101154.56
2022-08-02T05:17:24.610Z,101158.88
2022-08-02T05:19:54.645Z,101161.78
2022-08-02T05:22:23.742Z,101160.09
2022-08-02T05:24:51.301Z,101156.28
2022-08-02T05:27:21.473Z,101162.69
2022-08-02T05:29:54.156Z,101160.47
2022-08-02T05:32:25.928Z,101164.03
2022-08-02T05:34:53.544Z,101154.56
2022-08-02T05:37:20.666Z,101161.84
2022-08-02T05:39:55.701Z,101167.72
2022-08-02T05:42:25.721Z,101158.00
2022-08-02T05:44:52.717Z,101155.34
2022-08-02T05:47:19.617Z,101159.47
2022-08-02T05:49:49.842Z,101165.47
2022-08-02T05:52:21.094Z,101160.25
2022-08-02T05:55:17.366Z,101171.13
2022-08-02T05:58:28.086Z,101171.00
2022-08-02T06:01:38.014Z,101177.41
2022-08-02T06:04:24.230Z,101179.31
2022-08-02T06:07:38.033Z,101169.00
2022-08-02T06:10:08.379Z,101160.16
2022-08-02T06:13:17.787Z,101166.56
2022-08-02T06:15:50.255Z,101168.03
2022-08-02T06:18:28.433Z,101173.41
2022-08-02T06:22:31.142Z,101173.66
2022-08-02T06:23:57.700Z,101165.91
2022-08-02T06:26:37.151Z,101154.56
2022-08-02T06:29:04.678Z,101156.28
2022-08-02T06:31:31.731Z,101143.91
2022-08-02T06:34:06.308Z,101152.59
2022-08-02T06:37:40.466Z,101163.31
2022-08-02T06:41:18.940Z,101167.78
2022-08-02T06:44:19.452Z,101162.31
2022-08-02T06:47:11.065Z,101165.75
2022-08-02T06:49:52.406Z,101175.72
2022-08-02T06:52:31.627Z,101184.00
2022-08-02T06:55:01.642Z,101179.84
2022-08-02T06:57:30.270Z,101171.50
2022-08-02T07:00:02.525Z,101167.75
2022-08-02T07:02:31.988Z,101185.66
2022-08-02T07:05:00.324Z,101191.22
2022-08-02T07:07:28.375Z,101182.78
2022-08-02T07:10:00.871Z,101193.09
2022-08-02T07:12:47.083Z,101194.34
2022-08-02T07:15:14.112Z,101188.78
2022-08-02T07:17:46.084Z,101180.28
2022-08-02T07:20:15.119Z,101176.53
2022-08-02T07:22:55.569Z,101173.88
2022-08-02T07:26:01.851Z,101164.13
2022-08-02T07:28:49.946Z,101167.78
2022-08-02T07:31:19.770Z,101163.75
2022-08-02T07:36:29.116Z,101162.81
2022-08-02T07:38:58.819Z,101163.38
2022-08-02T07:41:28.608Z,101157.97
2022-08-02T07:43:57.909Z,101158.38
2022-08-02T07:46:25.713Z,101162.03
2022-08-02T07:48:55.510Z,101154.28
2022-08-02T07:51:28.726Z,101160.44
2022-08-02T07:54:02.767Z,101165.28
2022-08-02T07:56:31.787Z,101169.59
2022-08-02T07:59:01.833Z,101160.34
2022-08-02T08:01:51.811Z,101163.34
2022-08-02T08:04:20.251Z,101161.69
2022-08-02T08:06:54.681Z,101164.06
2022-08-02T08:09:31.976Z,101177.59
2022-08-02T08:11:58.953Z,101162.63
2022-08-02T08:14:25.783Z,101156.72
2022-08-02T08:16:52.653Z,101160.31
2022-08-02T08:19:19.538Z,101161.56
2022-08-02T08:21:46.611Z,101155.88
2022-08-02T08:24:25.019Z,101135.84
2022-08-02T08:26:51.810Z,101125.06
2022-08-02T08:29:19.035Z,101117.47
2022-08-02T08:31:51.441Z,101114.94
2022-08-02T08:34:18.665Z,101104.13
2022-08-02T08:36:45.692Z,101095.56
2022-08-02T08:39:12.593Z,101115.94
2022-08-02T08:41:46.124Z,101116.72
2022-08-02T08:44:13.099Z,101108.66
2022-08-02T08:46:44.331Z,101108.91
2022-08-02T08:49:52.497Z,101101.69
2022-08-02T08:52:29.542Z,101103.41
2022-08-02T08:54:57.536Z,101095.13
2022-08-02T08:57:35.417Z,101096.47
2022-08-02T09:00:06.803Z,101099.22
2022-08-02T09:02:36.591Z,101090.84
2022-08-02T09:05:03.818Z,101106.63
2022-08-02T09:07:32.112Z,101101.91
2022-08-02T09:09:58.917Z,101107.88
2022-08-02T09:12:26.027Z,101118.88
2022-08-02T09:14:52.928Z,101122.19
2022-08-02T09:17:21.933Z,101111.91
2022-08-02T09:20:08.753Z,101101.78
2022-08-02T09:22:35.606Z,101107.94
2022-08-02T09:25:02.425Z,101105.75
2022-08-02T09:27:37.332Z,101118.06
2022-08-02T09:30:16.713Z,101114.72
2022-08-02T09:32:49.638Z,101113.94
2022-08-02T09:36:06.882Z,101116.56
2022-08-02T09:38:28.195Z,101096.75
2022-08-02T09:44:03.338Z,101106.69
2022-08-02T09:46:46.122Z,101088.94
2022-08-02T09:49:24.944Z,101101.06
2022-08-02T09:51:57.624Z,101094.09
2022-08-02T09:54:37.224Z,101090.31
2022-08-02T09:57:09.451Z,101095.16
2022-08-02T09:59:36.967Z,101083.44
2022-08-02T10:02:14.640Z,101082.72
2022-08-02T10:04:52.882Z,101090.66
2022-08-02T10:07:29.603Z,101092.38
2022-08-02T10:10:07.436Z,101101.44
2022-08-02T10:12:38.063Z,101095.41
2022-08-02T10:15:13.761Z,101093.41
2022-08-02T10:17:48.227Z,101090.41
2022-08-02T10:20:46.676Z,101088.19
2022-08-02T10:23:32.437Z,101084.34
2022-08-02T10:26:13.072Z,101083.09
2022-08-02T10:28:54.753Z,101084.56
2022-08-02T10:31:32.467Z,101085.41
2022-08-02T10:34:19.574Z,101075.22
2022-08-02T10:36:53.221Z,101068.63
2022-08-02T10:39:22.591Z,101071.63
2022-08-02T10:41:54.909Z,101064.91
2022-08-02T10:44:33.077Z,101067.91
2022-08-02T10:47:15.464Z,101057.81
2022-08-02T10:50:01.999Z,101050.03
2022-08-02T10:52:33.491Z,101061.16
2022-08-02T10:55:10.952Z,101049.50
2022-08-02T10:57:48.733Z,101045.41
2022-08-02T11:00:24.538Z,101047.34
2022-08-02T11:02:53.873Z,101038.78
2022-08-02T11:05:43.325Z,101032.41
2022-08-02T11:08:22.705Z,101029.88
2022-08-02T11:10:49.614Z,101034.81
2022-08-02T11:13:19.851Z,101031.47
2022-08-02T11:16:11.229Z,101029.94
2022-08-02T11:18:52.346Z,101039.19
2022-08-02T11:21:36.395Z,101026.28
2022-08-02T11:24:36.837Z,101035.56
2022-08-02T11:27:23.975Z,101026.03
2022-08-02T11:29:50.835Z,101025.34
2022-08-02T11:32:31.139Z,101025.09
2022-08-02T11:34:59.144Z,101031.22
2022-08-02T11:37:36.412Z,101033.81
2022-08-02T11:40:20.949Z,101032.81
2022-08-02T11:42:55.736Z,101029.44
2022-08-02T11:45:29.942Z,101021.22
2022-08-02T11:48:00.122Z,101017.44
2022-08-02T11:50:29.802Z,101015.47
2022-08-02T11:52:59.212Z,101020.41
2022-08-02T11:55:32.542Z,100996.41
2022-08-02T11:58:06.212Z,101004.69
2022-08-02T12:00:34.270Z,100995.00
2022-08-02T12:03:02.459Z,100987.13
2022-08-02T12:06:03.797Z,101000.00
2022-08-02T12:08:25.521Z,100995.06
2022-08-02T12:10:53.463Z,100991.41
2022-08-02T12:13:22.731Z,100981.50
2022-08-02T12:15:49.594Z,100985.03
2022-08-02T12:18:45.600Z,100980.75
2022-08-02T12:21:26.158Z,100965.44
2022-08-02T12:23:58.803Z,100973.69
2022-08-02T12:26:30.273Z,100976.31
2022-08-02T12:29:03.099Z,100965.22
2022-08-02T12:31:55.816Z,100967.34
2022-08-02T12:34:30.038Z,100969.28
2022-08-02T12:37:10.955Z,100971.59
2022-08-02T12:39:45.815Z,100964.22
2022-08-02T12:42:18.868Z,100974.00
2022-08-02T12:45:00.034Z,100968.91
2022-08-02T12:47:31.383Z,100959.25
2022-08-02T12:50:24.974Z,100966.44
2022-08-02T12:53:03.943Z,100968.56
2022-08-02T12:56:00.863Z,100972.72
2022-08-02T12:58:18.990Z,100956.91
2022-08-02T13:01:00.612Z,100959.91
2022-08-02T13:04:07.554Z,100955.78
2022-08-02T13:06:42.215Z,100954.81
2022-08-02T13:09:14.201Z,100946.25
2022-08-02T13:11:43.236Z,100948.19
2022-08-02T13:14:12.336Z,100941.38
2022-08-02T13:16:40.466Z,100952.66
2022-08-02T13:19:07.242Z,100961.06
2022-08-02T13:21:41.052Z,100956.97
2022-08-02T13:24:39.989Z,100957.78
2022-08-02T13:27:11.092Z,100961.25
2022-08-02T13:29:39.330Z,100960.25
2022-08-02T13:32:06.519Z,100950.63
2022-08-02T13:34:33.602Z,100953.34
2022-08-02T13:37:00.855Z,100948.66
2022-08-02T13:39:27.598Z,100950.59
2022-08-02T13:41:55.221Z,100943.53
2022-08-02T13:44:22.567Z,100940.19
2022-08-02T13:46:49.343Z,100936.84
2022-08-02T13:49:19.995Z,100943.06
2022-08-02T13:51:48.674Z,100942.44
2022-08-02T13:54:17.192Z,100937.25
2022-08-02T13:56:44.579Z,100944.03
2022-08-02T13:59:57.798Z,100937.38
2022-08-02T14:01:59.571Z,100938.13
2022-08-02T14:04:29.271Z,100924.13
2022-08-02T14:07:02.467Z,100933.53
2022-08-02T14:09:32.610Z,100923.81
2022-08-02T14:12:00.690Z,100919.75
2022-08-02T14:14:30.695Z,100910.84
2022-08-02T14:16:59.024Z,100916.81
2022-08-02T14:19:28.785Z,100914.38
2022-08-02T14:22:11.116Z,100910.00
2022-08-02T14:24:43.352Z,100906.09
2022-08-02T14:27:10.878Z,100915.69
2022-08-02T14:29:37.634Z,100899.94
2022-08-02T14:32:04.792Z,100893.06
2022-08-02T14:34:34.996Z,100888.19
2022-08-02T14:37:02.311Z,100886.84
2022-08-02T14:39:42.852Z,100885.81
2022-08-02T14:42:16.274Z,100893.31
2022-08-02T14:44:47.705Z,100880.38
2022-08-02T14:47:16.902Z,100879.38
2022-08-02T14:49:48.303Z,100875.97
2022-08-02T14:52:17.066Z,100869.19
2022-08-02T14:54:43.829Z,100879.91
2022-08-02T14:57:14.655Z,100870.44
2022-08-02T14:59:42.435Z,100865.94
2022-08-02T15:02:11.883Z,100866.84
2022-08-02T15:04:42.912Z,100872.47
2022-08-02T15:07:10.778Z,100873.22
2022-08-02T15:09:39.676Z,100867.44
2022-08-02T15:12:08.845Z,100869.03
2022-08-02T15:14:35.804Z,100861.47
2022-08-02T15:17:02.662Z,100857.91
2022-08-02T15:19:56.511Z,100858.03
2022-08-02T15:22:19.868Z,100855.16
2022-08-02T15:24:48.890Z,100855.63
2022-08-02T15:27:17.141Z,100853.47
2022-08-02T15:29:47.296Z,100855.34
2022-08-02T15:32:19.444Z,100856.44
2022-08-02T15:34:47.901Z,100860.47
2022-08-02T15:37:14.819Z,100862.16
2022-08-02T15:39:41.597Z,100862.78
2022-08-02T15:42:08.509Z,100866.84
2022-08-02T15:44:35.580Z,100864.31
2022-08-02T15:47:06.272Z,100862.66
2022-08-02T15:49:33.086Z,100860.94
2022-08-02T15:52:00.421Z,100869.09
2022-08-02T15:54:27.359Z,100867.78
2022-08-02T15:56:54.261Z,100870.94
2022-08-02T15:59:21.414Z,100864.59
2022-08-02T16:01:48.902Z,100873.06
2022-08-02T16:04:17.505Z,100866.72
2022-08-02T16:06:48.233Z,100867.19
2022-08-02T16:09:15.037Z,100873.19
2022-08-02T16:11:41.883Z,100868.00
2022-08-02T16:14:11.859Z,100866.91
2022-08-02T16:16:42.590Z,100868.06
2022-08-02T16:19:46.269Z,100878.31
2022-08-02T16:21:56.392Z,100870.72
2022-08-02T16:24:26.964Z,100871.69
2022-08-02T16:26:56.641Z,100881.09
2022-08-02T16:29:26.742Z,100874.22
2022-08-02T16:32:02.518Z,100866.91
2022-08-02T16:34:40.300Z,100867.03
2022-08-02T16:37:16.385Z,100862.84
2022-08-02T16:39:43.432Z,100864.16
2022-08-02T16:42:10.203Z,100851.81
2022-08-02T16:44:38.385Z,100853.72
2022-08-02T16:47:05.548Z,100861.38
2022-08-02T16:50:06.049Z,100851.91
2022-08-02T16:52:20.036Z,100852.91
2022-08-02T16:54:49.852Z,100856.09
2022-08-02T16:57:20.793Z,100855.06
2022-08-02T16:59:58.231Z,100858.19
2022-08-02T17:02:34.070Z,100849.34
2022-08-02T17:05:14.425Z,100857.34
2022-08-02T17:08:08.184Z,100852.50
2022-08-02T17:10:39.161Z,100851.47
2022-08-02T17:13:11.049Z,100850.59
2022-08-02T17:16:07.806Z,100837.78
2022-08-02T17:18:30.288Z,100842.19
2022-08-02T17:20:57.310Z,100839.25
2022-08-02T17:23:47.233Z,100835.66
2022-08-02T17:26:32.388Z,100832.91
2022-08-02T17:29:14.370Z,100840.22
2022-08-02T17:32:04.686Z,100827.56
2022-08-02T17:34:48.859Z,100836.38
2022-08-02T17:37:33.339Z,100822.91
2022-08-02T17:40:03.511Z,100818.69
2022-08-02T17:42:37.020Z,100817.03
2022-08-02T17:45:24.909Z,100815.31
2022-08-02T17:48:03.772Z,100827.72
2022-08-02T17:50:35.835Z,100827.13
2022-08-02T17:53:04.744Z,100822.47
2022-08-02T17:55:37.966Z,100823.72
2022-08-02T17:58:07.545Z,100827.72
2022-08-02T18:00:39.645Z,100819.06
2022-08-02T18:03:10.010Z,100829.81
2022-08-02T18:05:53.134Z,100819.72
2022-08-02T18:08:24.310Z,100807.75
2022-08-02T18:10:56.711Z,100812.47
2022-08-02T18:13:24.306Z,100807.00
2022-08-02T18:15:59.118Z,100809.53
2022-08-02T18:18:29.723Z,100808.66
2022-08-02T18:21:15.502Z,100807.38
2022-08-02T18:23:48.555Z,100812.19
2022-08-02T18:26:20.755Z,100822.50
2022-08-02T18:28:50.846Z,100819.75
2022-08-02T18:31:22.445Z,100815.72
2022-08-02T18:39:29.100Z,100820.31
2022-08-02T18:41:59.957Z,100818.41
2022-08-02T18:44:30.081Z,100810.81
2022-08-02T18:46:57.746Z,100816.72
2022-08-02T18:49:30.083Z,100819.63
2022-08-02T18:52:15.071Z,100820.25
2022-08-02T18:54:42.566Z,100818.31
2022-08-02T18:58:17.911Z,100818.75
2022-08-02T19:00:08.587Z,100823.97
2022-08-02T19:02:40.459Z,100825.84
2022-08-02T19:05:53.147Z,100834.69
2022-08-02T19:08:25.380Z,100834.03
2022-08-02T19:10:55.167Z,100850.06
2022-08-02T19:13:24.650Z,100856.19
2022-08-02T19:15:55.777Z,100853.03
2022-08-02T19:18:26.713Z,100860.00
2022-08-02T19:21:02.893Z,100859.59
2022-08-02T19:23:33.150Z,100853.47
2022-08-02T19:26:04.661Z,100856.44
2022-08-02T19:28:31.471Z,100870.94
2022-08-02T19:30:58.630Z,100872.63
2022-08-02T19:34:06.118Z,100858.63
2022-08-02T19:36:12.825Z,100849.41
2022-08-02T19:39:23.759Z,100848.88
2022-08-02T19:42:07.054Z,100842.34
2022-08-02T19:44:34.357Z,100832.47
2022-08-02T19:47:05.081Z,100828.03
2022-08-02T19:49:40.833Z,100825.72
2022-08-02T19:52:21.383Z,100823.59
2022-08-02T19:54:55.174Z,100826.13
2022-08-02T19:57:25.106Z,100813.88
2022-08-02T19:59:54.391Z,100809.06
2022-08-02T20:02:24.698Z,100800.41
2022-08-02T20:04:53.340Z,100800.41
2022-08-02T20:07:54.526Z,100803.75
2022-08-02T20:10:24.657Z,100808.00
2022-08-02T20:12:55.096Z,100802.69
2022-08-02T20:15:55.905Z,100815.09
2022-08-02T20:18:11.754Z,100810.44
2022-08-02T20:20:48.441Z,100802.03
2022-08-02T20:23:33.363Z,100808.34
2022-08-02T20:26:02.324Z,100796.34
2022-08-02T20:28:30.224Z,100799.69
2022-08-02T20:30:57.764Z,100796.09
2022-08-02T20:33:34.784Z,100796.09
2022-08-02T20:36:22.846Z,100792.13
2022-08-02T20:38:50.221Z,100789.78
2022-08-02T20:41:20.281Z,100798.81
2022-08-02T20:43:50.117Z,100797.56
2022-08-02T20:46:17.441Z,100804.28
2022-08-02T20:48:46.942Z,100806.34
2022-08-02T20:51:16.656Z,100805.91
2022-08-02T20:53:56.116Z,100812.22
2022-08-02T20:56:23.842Z,100812.44
2022-08-02T20:58:56.027Z,100808.59
2022-08-02T21:01:36.918Z,100817.44
2022-08-02T21:04:05.292Z,100813.66
2022-08-02T21:06:33.291Z,100823.13
2022-08-02T21:09:00.075Z,100826.09
2022-08-02T21:11:33.763Z,100823.97
2022-08-02T21:14:09.046Z,100822.09
2022-08-02T21:16:37.050Z,100815.56
2022-08-02T21:19:09.778Z,100803.16
2022-08-02T21:21:37.765Z,100810.31
2022-08-02T21:24:05.557Z,100808.84
2022-08-02T21:26:33.249Z,100809.69
2022-08-02T21:29:03.543Z,100805.25
2022-08-02T21:31:35.798Z,100813.91
2022-08-02T21:34:21.933Z,100813.31
2022-08-02T21:36:52.722Z,100816.44
2022-08-02T21:39:24.883Z,100817.09
2022-08-02T21:41:52.522Z,100807.03
2022-08-02T21:44:22.290Z,100804.53
2022-08-02T21:46:59.774Z,100806.66
2022-08-02T21:50:08.874Z,100805.22
2022-08-02T21:52:20.758Z,100801.41
2022-08-02T21:54:55.762Z,100798.03
2022-08-02T21:57:25.122Z,100802.22
2022-08-02T22:00:02.059Z,100801.81
2022-08-02T22:02:31.051Z,100798.66
2022-08-02T22:04:58.679Z,100800.75
2022-08-02T22:07:25.631Z,100806.00
2022-08-02T22:09:55.561Z,100805.56
2022-08-02T22:12:26.042Z,100800.94
2022-08-02T22:14:57.138Z,100793.97
2022-08-02T22:17:51.963Z,100805.56
2022-08-02T22:20:19.730Z,100805.56
2022-08-02T22:22:52.603Z,100805.78
2022-08-02T22:25:27.251Z,100802.19
2022-08-02T22:28:37.344Z,100787.47
2022-08-02T22:31:04.754Z,100796.72
2022-08-02T22:34:00.720Z,100803.88
2022-08-02T22:36:32.087Z,100796.59
2022-08-02T22:39:02.191Z,100795.16
2022-08-02T22:42:01.937Z,100806.81
2022-08-02T22:44:20.286Z,100800.91
2022-08-02T22:46:50.526Z,100811.00
2022-08-02T22:49:38.642Z,100806.59
2022-08-02T22:52:05.161Z,100819.66
2022-08-02T22:54:32.575Z,100816.50
2022-08-02T22:56:59.472Z,100820.72
2022-08-02T22:58:44.771Z,100819.72
2022-08-02T22:58:57.503Z,100821.16
2022-08-02T22:59:38.675Z,100820.94
2022-08-02T23:02:07.583Z,100815.03
2022-08-02T23:04:34.611Z,100815.25
2022-08-02T23:07:01.578Z,100812.94
2022-08-02T23:09:29.087Z,100805.78
2022-08-02T23:11:56.172Z,100815.03
2022-08-02T23:14:32.881Z,100800.69
2022-08-02T23:17:18.625Z,100807.44
2022-08-02T23:19:54.376Z,100801.13
2022-08-02T23:22:29.834Z,100803.25
2022-08-02T23:25:03.221Z,100800.94
2022-08-02T23:27:35.719Z,100789.56
2022-08-02T23:30:04.806Z,100789.34
2022-08-02T23:32:41.528Z,100793.31
2022-08-02T23:35:09.777Z,100797.97
2022-08-02T23:38:00.276Z,100793.56
2022-08-02T23:40:40.497Z,100794.81
2022-08-02T23:43:19.201Z,100802.16
2022-08-02T23:45:46.641Z,100791.47
2022-08-02T23:48:21.926Z,100795.47
2022-08-02T23:50:59.474Z,100798.59
2022-08-02T23:53:32.631Z,100782.19
2022-08-02T23:56:01.002Z,100783.25
2022-08-02T23:58:32.989Z,100795.25
